createdAt,value
2022-12-27T00:02:28.564Z,87.00
2022-12-27T00:04:57.596Z,86.90
2022-12-27T00:07:26.575Z,87.00
2022-12-27T00:09:55.702Z,87.10
2022-12-27T00:12:24.691Z,87.00
2022-12-27T00:14:53.677Z,87.00
2022-12-27T00:17:24.068Z,87.00
2022-12-27T00:19:53.107Z,87.00
2022-12-27T00:22:22.102Z,87.00
2022-12-27T00:24:51.101Z,86.90
2022-12-27T00:27:20.102Z,86.90
2022-12-27T00:29:49.093Z,86.90
2022-12-27T00:32:18.076Z,86.90
2022-12-27T00:34:48.430Z,87.00
2022-12-27T00:37:17.544Z,87.00
2022-12-27T00:39:46.486Z,87.00
2022-12-27T00:42:15.494Z,87.00
2022-12-27T00:44:44.610Z,87.10
2022-12-27T00:47:13.577Z,87.20
2022-12-27T00:49:42.587Z,87.10
2022-12-27T00:52:12.949Z,87.10
2022-12-27T00:54:41.894Z,87.10
2022-12-27T00:57:10.895Z,87.10
2022-12-27T00:59:39.875Z,87.10
2022-12-27T01:02:08.941Z,87.10
2022-12-27T01:04:37.901Z,87.00
2022-12-27T01:07:06.907Z,87.00
2022-12-27T01:09:37.238Z,87.00
2022-12-27T01:12:06.694Z,87.10
2022-12-27T01:14:35.845Z,87.10
2022-12-27T01:17:04.854Z,87.00
2022-12-27T01:19:36.066Z,87.00
2022-12-27T01:22:05.015Z,87.00
2022-12-27T01:24:34.049Z,87.00
2022-12-27T01:27:04.489Z,86.90
2022-12-27T01:29:33.869Z,86.80
2022-12-27T01:32:04.944Z,86.90
2022-12-27T01:34:33.924Z,86.90
2022-12-27T01:37:03.103Z,86.90
2022-12-27T01:39:32.130Z,87.00
2022-12-27T01:42:18.368Z,87.00
2022-12-27T01:44:56.196Z,87.00
2022-12-27T01:47:40.944Z,87.00
2022-12-27T01:50:25.922Z,86.90
2022-12-27T01:53:01.530Z,87.00
2022-12-27T01:55:38.120Z,86.90
2022-12-27T01:58:12.412Z,87.00
2022-12-27T02:00:46.038Z,86.90
2022-12-27T02:03:20.352Z,86.90
2022-12-27T02:05:50.832Z,86.80
2022-12-27T02:08:36.320Z,86.70
2022-12-27T02:11:06.487Z,86.70
2022-12-27T02:13:39.187Z,86.60
2022-12-27T02:16:14.381Z,86.40
2022-12-27T02:18:43.952Z,86.40
2022-12-27T02:21:32.954Z,86.40
2022-12-27T02:24:32.793Z,86.40
2022-12-27T02:27:06.181Z,86.40
2022-12-27T02:29:48.273Z,86.30
2022-12-27T02:32:22.216Z,86.30
2022-12-27T02:35:01.281Z,86.30
2022-12-27T02:37:33.604Z,86.20
2022-12-27T02:40:19.664Z,86.10
2022-12-27T02:43:08.023Z,86.10
2022-12-27T02:46:03.248Z,86.20
2022-12-27T02:48:49.659Z,86.10
2022-12-27T02:51:50.486Z,86.10
2022-12-27T02:54:47.017Z,86.10
2022-12-27T02:57:25.882Z,86.10
2022-12-27T03:00:26.200Z,86.00
2022-12-27T03:03:31.631Z,86.00
2022-12-27T03:06:35.889Z,85.90
2022-12-27T03:09:34.550Z,86.10
2022-12-27T03:12:25.608Z,85.90
2022-12-27T03:15:18.284Z,85.80
2022-12-27T03:17:53.161Z,85.80
2022-12-27T03:20:41.656Z,85.80
2022-12-27T03:23:29.016Z,85.80
2022-12-27T03:26:01.298Z,85.70
2022-12-27T03:28:49.247Z,85.60
2022-12-27T03:31:40.801Z,85.60
2022-12-27T03:34:31.905Z,85.70
2022-12-27T03:37:23.203Z,85.50
2022-12-27T03:40:02.996Z,85.50
2022-12-27T03:42:53.481Z,85.40
2022-12-27T03:45:43.364Z,85.40
2022-12-27T03:48:14.887Z,85.40
2022-12-27T03:50:47.750Z,85.40
2022-12-27T03:53:25.118Z,85.30
2022-12-27T03:55:54.086Z,85.20
2022-12-27T03:58:23.227Z,85.20
2022-12-27T04:00:52.473Z,85.20
2022-12-27T04:03:21.528Z,85.10
2022-12-27T04:05:50.610Z,85.20
2022-12-27T04:08:38.280Z,85.20
2022-12-27T04:11:24.742Z,85.20
2022-12-27T04:14:10.945Z,85.30
2022-12-27T04:16:57.011Z,85.20
2022-12-27T04:19:43.321Z,85.30
2022-12-27T04:22:29.787Z,85.20
2022-12-27T04:25:17.595Z,85.30
2022-12-27T04:28:03.852Z,85.40
2022-12-27T04:30:50.132Z,85.60
2022-12-27T04:33:36.754Z,85.60
2022-12-27T04:36:06.759Z,85.70
2022-12-27T04:38:35.769Z,85.80
2022-12-27T04:41:23.887Z,86.80
2022-12-27T04:44:10.134Z,85.90
2022-12-27T04:46:56.519Z,85.90
2022-12-27T04:49:44.879Z,86.10
2022-12-27T04:52:35.864Z,86.20
2022-12-27T04:55:13.570Z,86.30
2022-12-27T04:57:43.933Z,86.50
2022-12-27T05:00:28.630Z,86.60
2022-12-27T05:02:58.544Z,86.80
2022-12-27T05:05:28.136Z,86.90
2022-12-27T05:08:15.674Z,87.10
2022-12-27T05:11:02.196Z,87.10
2022-12-27T05:13:46.436Z,87.30
2022-12-27T05:16:15.605Z,87.40
2022-12-27T05:18:45.478Z,88.40
2022-12-27T05:21:14.495Z,87.60
2022-12-27T05:24:05.414Z,87.80
2022-12-27T05:26:35.085Z,88.00
2022-12-27T05:29:05.909Z,88.30
2022-12-27T05:31:35.725Z,88.20
2022-12-27T05:34:05.731Z,88.40
2022-12-27T05:36:34.743Z,88.60
2022-12-27T05:39:06.052Z,89.00
2022-12-27T05:41:34.834Z,89.20
2022-12-27T05:44:07.636Z,89.60
2022-12-27T05:46:36.867Z,89.50
2022-12-27T05:49:06.061Z,89.70
2022-12-27T05:51:35.066Z,90.00
2022-12-27T05:54:04.055Z,90.10
2022-12-27T05:56:35.446Z,90.20
2022-12-27T05:59:08.041Z,90.30
2022-12-27T06:01:37.240Z,90.40
2022-12-27T06:04:06.651Z,90.50
2022-12-27T06:06:36.002Z,90.60
2022-12-27T06:09:05.200Z,90.60
2022-12-27T06:11:34.168Z,90.70
2022-12-27T06:14:03.139Z,90.80
2022-12-27T06:16:33.570Z,90.90
2022-12-27T06:19:02.805Z,91.00
2022-12-27T06:21:31.770Z,91.00
2022-12-27T06:24:00.746Z,91.10
2022-12-27T06:26:30.706Z,91.20
2022-12-27T06:29:00.126Z,91.30
2022-12-27T06:31:29.290Z,91.40
2022-12-27T06:33:59.630Z,91.50
2022-12-27T06:36:30.296Z,91.60
2022-12-27T06:38:59.620Z,91.70
2022-12-27T06:41:28.606Z,91.80
2022-12-27T06:43:59.244Z,91.80
2022-12-27T06:46:28.302Z,91.90
2022-12-27T06:48:58.220Z,92.00
2022-12-27T06:51:28.560Z,92.10
2022-12-27T06:53:57.566Z,92.20
2022-12-27T06:56:26.526Z,92.30
2022-12-27T06:58:56.903Z,92.40
2022-12-27T07:01:28.099Z,92.50
2022-12-27T07:03:57.981Z,92.60
2022-12-27T07:06:30.383Z,92.70
2022-12-27T07:09:00.799Z,92.60
2022-12-27T07:11:30.104Z,92.60
2022-12-27T07:13:59.107Z,92.70
2022-12-27T07:16:30.215Z,92.70
2022-12-27T07:19:00.807Z,92.80
2022-12-27T07:21:31.647Z,92.90
2022-12-27T07:24:00.706Z,93.00
2022-12-27T07:26:31.470Z,93.00
2022-12-27T07:29:02.140Z,93.00
2022-12-27T07:31:33.912Z,93.10
2022-12-27T07:34:06.279Z,93.10
2022-12-27T07:36:38.997Z,93.10
2022-12-27T07:39:10.498Z,93.20
2022-12-27T07:41:40.122Z,93.30
2022-12-27T07:44:12.221Z,93.30
2022-12-27T07:46:43.207Z,93.40
2022-12-27T07:49:17.584Z,93.40
2022-12-27T07:51:48.564Z,93.50
2022-12-27T07:54:17.778Z,93.50
2022-12-27T07:56:46.924Z,93.60
2022-12-27T07:59:16.581Z,93.60
2022-12-27T08:02:03.179Z,93.70
2022-12-27T08:04:36.521Z,93.70
2022-12-27T08:07:10.334Z,93.70
2022-12-27T08:09:43.146Z,93.80
2022-12-27T08:12:13.510Z,93.90
2022-12-27T08:14:42.670Z,93.90
2022-12-27T08:17:17.536Z,94.00
2022-12-27T08:19:47.111Z,93.90
2022-12-27T08:22:17.965Z,93.90
2022-12-27T08:24:47.001Z,94.00
2022-12-27T08:27:21.754Z,94.10
2022-12-27T08:29:50.926Z,94.10
2022-12-27T08:32:20.021Z,94.10
2022-12-27T08:34:49.053Z,94.20
2022-12-27T08:37:19.385Z,94.30
2022-12-27T08:39:48.453Z,94.30
2022-12-27T08:42:17.457Z,94.40
2022-12-27T08:44:46.409Z,94.80
2022-12-27T08:47:15.403Z,94.50
2022-12-27T08:49:44.467Z,94.50
2022-12-27T08:52:13.461Z,94.50
2022-12-27T08:54:43.867Z,94.60
2022-12-27T08:57:12.905Z,94.60
2022-12-27T08:59:41.929Z,94.60
2022-12-27T09:02:11.505Z,94.70
2022-12-27T09:04:40.578Z,94.70
2022-12-27T09:07:09.864Z,94.70
2022-12-27T09:09:39.092Z,94.70
2022-12-27T09:12:09.625Z,94.80
2022-12-27T09:14:38.734Z,94.90
2022-12-27T09:17:09.466Z,94.90
2022-12-27T09:19:38.492Z,94.90
2022-12-27T09:22:07.513Z,94.90
2022-12-27T09:24:36.609Z,95.00
2022-12-27T09:27:05.776Z,95.00
2022-12-27T09:29:36.200Z,95.10
2022-12-27T09:32:05.509Z,95.10
2022-12-27T09:34:34.576Z,95.20
2022-12-27T09:37:03.644Z,95.20
2022-12-27T09:39:32.693Z,95.30
2022-12-27T09:42:47.689Z,95.30
2022-12-27T09:45:11.837Z,95.30
2022-12-27T09:47:51.001Z,95.30
2022-12-27T09:50:26.143Z,95.30
2022-12-27T09:53:01.607Z,95.40
2022-12-27T09:55:41.377Z,95.40
2022-12-27T09:58:30.308Z,95.40
2022-12-27T10:01:01.567Z,95.40
2022-12-27T10:03:31.268Z,95.40
2022-12-27T10:06:08.679Z,95.40
2022-12-27T10:08:46.562Z,95.30
2022-12-27T10:11:40.123Z,95.40
2022-12-27T10:14:31.511Z,95.50
2022-12-27T10:17:10.411Z,95.50
2022-12-27T10:19:49.530Z,95.50
2022-12-27T10:22:29.193Z,95.50
2022-12-27T10:25:01.946Z,95.50
2022-12-27T10:27:33.082Z,95.60
2022-12-27T10:30:04.044Z,95.60
2022-12-27T10:32:34.443Z,95.70
2022-12-27T10:35:05.277Z,95.70
2022-12-27T10:37:34.328Z,95.70
2022-12-27T10:40:12.301Z,95.70
2022-12-27T10:42:48.377Z,95.80
2022-12-27T10:45:32.465Z,95.80
2022-12-27T10:48:17.657Z,95.80
2022-12-27T10:50:54.868Z,95.70
2022-12-27T10:53:36.095Z,95.70
2022-12-27T10:56:16.891Z,95.80
2022-12-27T10:58:53.012Z,95.70
2022-12-27T11:01:27.797Z,95.80
2022-12-27T11:04:19.356Z,95.80
2022-12-27T11:06:51.613Z,95.90
2022-12-27T11:09:30.146Z,95.80
2022-12-27T11:12:20.998Z,95.80
2022-12-27T11:14:59.312Z,95.90
2022-12-27T11:17:31.247Z,95.80
2022-12-27T11:20:07.598Z,95.80
2022-12-27T11:22:44.741Z,95.80
2022-12-27T11:25:16.023Z,95.80
2022-12-27T11:27:46.397Z,95.80
2022-12-27T11:30:24.660Z,95.80
2022-12-27T11:32:54.880Z,95.70
2022-12-27T11:35:25.520Z,95.70
2022-12-27T11:37:54.716Z,96.10
2022-12-27T11:40:27.843Z,95.70
2022-12-27T11:43:03.967Z,95.70
2022-12-27T11:45:39.984Z,95.70
2022-12-27T11:48:20.001Z,95.70
2022-12-27T11:51:13.959Z,95.70
2022-12-27T11:54:09.167Z,95.70
2022-12-27T11:56:42.349Z,95.60
2022-12-27T11:59:33.468Z,95.60
2022-12-27T12:02:23.543Z,95.60
2022-12-27T12:05:20.289Z,95.60
2022-12-27T12:08:25.530Z,95.60
2022-12-27T12:11:00.442Z,95.60
2022-12-27T12:14:09.137Z,95.60
2022-12-27T12:16:56.527Z,95.70
2022-12-27T12:19:53.134Z,95.60
2022-12-27T12:22:43.116Z,95.60
2022-12-27T12:25:47.852Z,95.60
2022-12-27T12:31:53.732Z,95.60
2022-12-27T12:34:43.948Z,95.60
2022-12-27T12:37:27.109Z,95.60
2022-12-27T12:40:19.894Z,95.60
2022-12-27T12:43:00.159Z,95.70
2022-12-27T12:45:48.864Z,95.70
2022-12-27T12:48:52.663Z,95.70
2022-12-27T12:51:58.065Z,95.60
2022-12-27T12:54:48.051Z,95.60
2022-12-27T12:57:36.256Z,95.60
2022-12-27T13:00:28.851Z,95.60
2022-12-27T13:03:27.480Z,95.60
2022-12-27T13:06:05.666Z,95.60
2022-12-27T13:08:41.563Z,95.60
2022-12-27T13:11:36.033Z,95.50
2022-12-27T13:14:18.004Z,95.60
2022-12-27T13:16:57.309Z,95.50
2022-12-27T13:19:42.416Z,95.40
2022-12-27T13:22:19.223Z,95.40
2022-12-27T13:25:04.109Z,95.30
2022-12-27T13:27:40.662Z,95.30
2022-12-27T13:30:20.762Z,95.30
2022-12-27T13:33:19.513Z,95.30
2022-12-27T13:36:03.777Z,95.30
2022-12-27T13:38:44.939Z,95.30
2022-12-27T13:41:34.778Z,95.30
2022-12-27T13:44:49.351Z,95.30
2022-12-27T13:47:48.697Z,95.20
2022-12-27T13:50:54.807Z,95.10
2022-12-27T13:53:51.965Z,95.20
2022-12-27T13:59:52.589Z,95.20
2022-12-27T14:03:18.534Z,95.10
2022-12-27T14:06:17.231Z,95.10
2022-12-27T14:09:17.524Z,95.00
2022-12-27T14:11:57.819Z,95.00
2022-12-27T14:14:28.256Z,95.00
2022-12-27T14:17:20.115Z,95.00
2022-12-27T14:20:15.697Z,94.90
2022-12-27T14:23:19.894Z,94.90
2022-12-27T14:26:18.380Z,94.90
2022-12-27T14:29:29.000Z,94.80
2022-12-27T14:32:37.777Z,94.80
2022-12-27T14:35:37.737Z,94.80
2022-12-27T14:38:36.356Z,94.80
2022-12-27T14:41:49.236Z,94.80
2022-12-27T14:44:48.541Z,94.80
2022-12-27T14:47:59.624Z,94.80
2022-12-27T14:51:00.460Z,94.80
2022-12-27T14:54:15.222Z,94.70
2022-12-27T14:56:57.672Z,94.70
2022-12-27T14:59:38.079Z,94.60
2022-12-27T15:02:26.359Z,94.60
2022-12-27T15:05:17.844Z,94.60
2022-12-27T15:08:22.260Z,94.60
2022-12-27T15:11:06.381Z,94.60
2022-12-27T15:13:54.772Z,94.50
2022-12-27T15:16:38.151Z,94.60
2022-12-27T15:19:21.246Z,94.50
2022-12-27T15:21:58.630Z,94.50
2022-12-27T15:24:38.209Z,94.40
2022-12-27T15:27:19.501Z,94.40
2022-12-27T15:30:06.665Z,94.40
2022-12-27T15:32:51.235Z,94.40
2022-12-27T15:35:37.875Z,94.30
2022-12-27T15:38:13.068Z,94.30
2022-12-27T15:41:11.153Z,94.40
2022-12-27T15:44:25.090Z,94.40
2022-12-27T15:47:22.146Z,94.30
2022-12-27T15:50:20.319Z,94.20
2022-12-27T15:53:25.419Z,94.20
2022-12-27T15:56:23.423Z,94.20
2022-12-27T15:59:29.966Z,94.10
2022-12-27T16:02:35.921Z,94.10
2022-12-27T16:05:47.327Z,94.10
2022-12-27T16:08:35.045Z,94.40
2022-12-27T16:11:06.631Z,93.90
2022-12-27T16:13:48.384Z,93.90
2022-12-27T16:16:57.176Z,93.80
2022-12-27T16:19:54.759Z,93.80
2022-12-27T16:22:38.037Z,93.70
2022-12-27T16:25:31.151Z,93.70
2022-12-27T16:28:06.077Z,93.60
2022-12-27T16:30:43.992Z,93.60
2022-12-27T16:33:37.811Z,93.50
2022-12-27T16:36:21.951Z,93.50
2022-12-27T16:39:03.785Z,93.50
2022-12-27T16:41:46.119Z,93.40
2022-12-27T16:44:23.358Z,93.30
2022-12-27T16:47:06.974Z,93.30
2022-12-27T16:49:55.935Z,93.20
2022-12-27T16:52:45.235Z,93.20
2022-12-27T16:55:30.738Z,93.10
2022-12-27T16:58:22.421Z,93.00
2022-12-27T17:00:52.935Z,92.80
2022-12-27T17:03:40.541Z,92.70
2022-12-27T17:06:43.326Z,92.60
2022-12-27T17:09:44.496Z,92.40
2022-12-27T17:12:23.898Z,92.10
2022-12-27T17:15:04.814Z,92.00
2022-12-27T17:17:34.261Z,91.90
2022-12-27T17:20:06.207Z,91.70
2022-12-27T17:22:39.612Z,91.50
2022-12-27T17:25:16.331Z,91.40
2022-12-27T17:28:01.030Z,91.20
2022-12-27T17:30:39.641Z,91.10
2022-12-27T17:33:35.559Z,91.00
2022-12-27T17:36:23.809Z,90.90
2022-12-27T17:39:13.377Z,90.90
2022-12-27T17:42:07.393Z,90.90
2022-12-27T17:44:53.406Z,90.90
2022-12-27T17:47:44.265Z,90.90
2022-12-27T17:50:17.632Z,90.90
2022-12-27T17:53:21.376Z,90.90
2022-12-27T17:56:19.696Z,90.90
2022-12-27T17:58:48.694Z,90.90
2022-12-27T18:01:19.276Z,90.90
2022-12-27T18:03:49.046Z,90.90
2022-12-27T18:06:20.515Z,91.00
2022-12-27T18:08:50.462Z,91.00
2022-12-27T18:11:23.455Z,91.10
2022-12-27T18:13:59.032Z,91.10
2022-12-27T18:16:34.913Z,91.10
2022-12-27T18:19:04.460Z,91.10
2022-12-27T18:21:33.718Z,91.10
2022-12-27T18:24:02.783Z,91.10
2022-12-27T18:26:39.835Z,91.10
2022-12-27T18:29:12.838Z,91.00
2022-12-27T18:31:49.329Z,90.90
2022-12-27T18:34:25.492Z,90.80
2022-12-27T18:37:04.436Z,90.80
2022-12-27T18:39:36.238Z,90.70
2022-12-27T18:42:13.233Z,90.60
2022-12-27T18:44:48.404Z,90.50
2022-12-27T18:47:21.967Z,90.50
2022-12-27T18:49:55.979Z,90.40
2022-12-27T18:52:27.758Z,90.30
2022-12-27T18:54:56.822Z,90.20
2022-12-27T18:57:33.852Z,90.20
2022-12-27T19:00:13.876Z,90.10
2022-12-27T19:02:45.322Z,90.00
2022-12-27T19:05:23.144Z,90.00
2022-12-27T19:07:56.159Z,90.00
2022-12-27T19:10:27.247Z,90.00
2022-12-27T19:12:57.329Z,90.00
2022-12-27T19:15:29.214Z,90.00
2022-12-27T19:18:01.684Z,89.90
2022-12-27T19:20:34.776Z,89.80
2022-12-27T19:23:07.858Z,89.80
2022-12-27T19:25:39.562Z,89.80
2022-12-27T19:28:26.972Z,89.70
2022-12-27T19:31:17.635Z,89.40
2022-12-27T19:33:52.211Z,89.30
2022-12-27T19:36:24.930Z,89.40
2022-12-27T19:38:54.933Z,89.40
2022-12-27T19:41:24.116Z,89.20
2022-12-27T19:43:53.892Z,89.00
2022-12-27T19:46:30.579Z,89.10
2022-12-27T19:51:51.191Z,88.90
2022-12-27T19:54:22.826Z,88.90
2022-12-27T19:56:52.329Z,88.90
2022-12-27T19:59:24.116Z,88.90
2022-12-27T20:01:55.763Z,88.70
2022-12-27T20:04:29.407Z,88.80
2022-12-27T20:07:00.999Z,88.70
2022-12-27T20:09:30.273Z,88.60
2022-12-27T20:12:02.596Z,88.50
2022-12-27T20:14:31.804Z,88.40
2022-12-27T20:17:00.937Z,88.40
2022-12-27T20:19:31.586Z,88.40
2022-12-27T20:22:10.871Z,88.40
2022-12-27T20:24:43.000Z,88.40
2022-12-27T20:27:15.407Z,88.30
2022-12-27T20:29:44.601Z,88.40
2022-12-27T20:32:13.705Z,88.40
2022-12-27T20:34:44.174Z,88.50
2022-12-27T20:37:13.348Z,88.40
2022-12-27T20:39:42.527Z,88.40
2022-12-27T20:42:11.537Z,88.20
2022-12-27T20:44:40.904Z,88.20
2022-12-27T20:47:09.994Z,88.20
2022-12-27T20:49:39.583Z,88.10
2022-12-27T20:52:10.369Z,88.20
2022-12-27T20:54:39.391Z,88.30
2022-12-27T20:57:08.704Z,88.40
2022-12-27T20:59:37.719Z,88.40
2022-12-27T21:02:06.907Z,88.50
2022-12-27T21:04:36.048Z,88.50
2022-12-27T21:07:05.141Z,88.50
2022-12-27T21:09:35.651Z,88.50
2022-12-27T21:12:05.120Z,88.50
2022-12-27T21:14:34.726Z,88.60
2022-12-27T21:17:04.304Z,88.60
2022-12-27T21:19:33.565Z,88.50
2022-12-27T21:22:04.537Z,88.40
2022-12-27T21:24:38.002Z,88.30
2022-12-27T21:27:08.427Z,89.10
2022-12-27T21:29:37.549Z,88.30
2022-12-27T21:32:07.248Z,88.30
2022-12-27T21:34:36.548Z,88.30
2022-12-27T21:37:10.089Z,88.30
2022-12-27T21:39:41.955Z,88.20
2022-12-27T21:42:12.504Z,88.10
2022-12-27T21:44:41.700Z,88.00
2022-12-27T21:47:10.727Z,88.10
2022-12-27T21:49:40.553Z,88.10
2022-12-27T21:52:09.663Z,88.10
2022-12-27T21:54:38.739Z,88.00
2022-12-27T21:57:07.828Z,87.90
2022-12-27T21:59:38.340Z,87.80
2022-12-27T22:02:08.110Z,87.80
2022-12-27T22:04:37.215Z,87.90
2022-12-27T22:07:06.393Z,87.80
2022-12-27T22:09:37.082Z,87.90
2022-12-27T22:12:06.378Z,87.90
2022-12-27T22:14:37.193Z,87.90
2022-12-27T22:17:07.811Z,87.90
2022-12-27T22:19:36.937Z,87.90
2022-12-27T22:22:06.027Z,87.90
2022-12-27T22:24:35.051Z,87.90
2022-12-27T22:27:04.100Z,87.90
2022-12-27T22:29:35.380Z,87.90
2022-12-27T22:32:04.667Z,87.90
2022-12-27T22:34:35.127Z,87.80
2022-12-27T22:37:04.983Z,87.80
2022-12-27T22:39:33.990Z,87.80
2022-12-27T22:42:02.995Z,87.60
2022-12-27T22:44:32.015Z,87.60
2022-12-27T22:47:26.351Z,87.40
2022-12-27T22:49:51.565Z,87.40
2022-12-27T22:52:20.581Z,87.30
2022-12-27T22:55:04.479Z,87.30
2022-12-27T22:57:35.507Z,87.30
2022-12-27T23:00:05.836Z,87.20
2022-12-27T23:02:35.042Z,87.10
2022-12-27T23:05:06.249Z,87.00
2022-12-27T23:08:05.781Z,86.90
2022-12-27T23:10:24.242Z,86.90
2022-12-27T23:12:53.201Z,86.80
2022-12-27T23:15:22.200Z,86.60
2022-12-27T23:17:51.175Z,86.60
2022-12-27T23:20:21.749Z,86.60
2022-12-27T23:22:50.739Z,86.50
2022-12-27T23:25:19.734Z,86.50
2022-12-27T23:27:48.741Z,86.40
2022-12-27T23:30:18.011Z,86.30
2022-12-27T23:32:46.983Z,86.10
2022-12-27T23:35:16.084Z,85.90
2022-12-27T23:37:47.052Z,85.70
2022-12-27T23:40:16.232Z,85.40
2022-12-27T23:42:45.222Z,85.20
2022-12-27T23:45:14.196Z,85.10
2022-12-27T23:47:43.231Z,84.90
2022-12-27T23:50:17.369Z,84.70
2022-12-27T23:52:51.074Z,84.50
2022-12-27T23:55:20.224Z,84.30
2022-12-27T23:57:49.193Z,84.20
